createdAt,value
2017-11-29T00:00:08.491Z,100041.33
2017-11-29T00:02:37.877Z,100048.53
2017-11-29T00:05:06.201Z,100052.34
2017-11-29T00:07:34.565Z,100051.30
2017-11-29T00:10:02.945Z,100052.12
2017-11-29T00:12:31.315Z,100049.77
2017-11-29T00:15:00.447Z,100054.34
2017-11-29T00:17:28.791Z,100056.46
2017-11-29T00:19:57.222Z,100055.30
2017-11-29T00:22:25.544Z,100059.48
2017-11-29T00:24:54.418Z,100068.31
2017-11-29T00:27:23.501Z,100067.44
2017-11-29T00:29:52.164Z,100073.55
2017-11-29T00:32:20.538Z,100069.19
2017-11-29T00:34:48.891Z,100063.78
2017-11-29T00:37:17.223Z,100064.63
2017-11-29T00:39:45.599Z,100077.25
2017-11-29T00:42:13.978Z,100068.70
2017-11-29T00:44:43.029Z,100078.92
2017-11-29T00:47:11.791Z,100080.61
2017-11-29T00:49:41.266Z,100077.80
2017-11-29T00:52:09.662Z,100078.72
2017-11-29T00:54:38.790Z,100083.27
2017-11-29T00:57:07.116Z,100086.97
2017-11-29T00:59:35.432Z,100091.84
2017-11-29T01:02:03.800Z,100089.33
2017-11-29T01:04:32.905Z,100088.70
2017-11-29T01:07:01.252Z,100092.02
2017-11-29T01:09:29.647Z,100087.66
2017-11-29T01:11:57.975Z,100095.75
2017-11-29T01:14:26.319Z,100095.03
2017-11-29T01:16:54.657Z,100098.70
2017-11-29T01:19:23.014Z,100100.66
2017-11-29T01:21:51.386Z,100092.72
2017-11-29T01:24:19.751Z,100102.07
2017-11-29T01:26:48.071Z,100098.27
2017-11-29T01:29:16.415Z,100095.41
2017-11-29T01:31:44.859Z,100092.84
2017-11-29T01:34:13.218Z,100098.37
2017-11-29T01:36:41.541Z,100093.77
2017-11-29T01:39:09.929Z,100099.77
2017-11-29T01:41:38.278Z,100088.75
2017-11-29T01:44:07.390Z,100092.97
2017-11-29T01:46:35.748Z,100090.30
2017-11-29T01:49:04.841Z,100091.13
2017-11-29T01:51:33.199Z,100091.81
2017-11-29T01:54:01.746Z,100087.59
2017-11-29T01:56:30.077Z,100092.63
2017-11-29T01:58:58.385Z,100092.66
2017-11-29T02:01:26.731Z,100092.44
2017-11-29T02:03:55.049Z,100093.58
2017-11-29T02:06:28.036Z,100099.50
2017-11-29T02:08:56.745Z,100090.09
2017-11-29T02:11:25.065Z,100095.18
2017-11-29T02:13:54.373Z,100090.50
2017-11-29T02:16:22.717Z,100092.90
2017-11-29T02:18:51.062Z,100095.05
2017-11-29T02:21:19.439Z,100096.31
2017-11-29T02:23:47.769Z,100094.51
2017-11-29T02:26:16.810Z,100092.42
2017-11-29T02:28:45.180Z,100094.09
2017-11-29T02:31:14.280Z,100084.72
2017-11-29T02:33:42.629Z,100089.86
2017-11-29T02:36:11.852Z,100090.38
2017-11-29T02:38:40.948Z,100088.88
2017-11-29T02:41:26.977Z,100088.75
2017-11-29T02:43:55.321Z,100088.59
2017-11-29T02:46:23.673Z,100093.08
2017-11-29T02:48:52.009Z,100090.75
2017-11-29T02:51:21.128Z,100089.78
2017-11-29T02:53:49.484Z,100101.11
2017-11-29T02:56:17.917Z,100096.30
2017-11-29T02:58:46.257Z,100095.64
2017-11-29T03:01:14.583Z,100097.44
2017-11-29T03:03:43.186Z,100091.42
2017-11-29T03:06:12.422Z,100101.52
2017-11-29T03:08:41.673Z,100097.72
2017-11-29T03:11:10.025Z,100092.86
2017-11-29T03:13:38.369Z,100101.00
2017-11-29T03:16:06.715Z,100098.80
2017-11-29T03:18:35.603Z,100098.25
2017-11-29T03:21:04.632Z,100097.30
2017-11-29T03:23:32.976Z,100099.50
2017-11-29T03:26:01.646Z,100098.11
2017-11-29T03:28:30.758Z,100098.16
2017-11-29T03:30:59.883Z,100099.00
2017-11-29T03:33:28.277Z,100097.41
2017-11-29T03:35:56.614Z,100098.48
2017-11-29T03:38:25.335Z,100096.78
2017-11-29T03:40:53.868Z,100103.62
2017-11-29T03:43:22.942Z,100102.08
2017-11-29T03:45:51.298Z,100104.43
2017-11-29T03:48:19.663Z,100106.02
2017-11-29T03:50:48.008Z,100108.72
2017-11-29T03:53:17.108Z,100110.59
2017-11-29T03:55:45.537Z,100106.84
2017-11-29T03:58:15.466Z,100109.05
2017-11-29T04:00:43.783Z,100112.66
2017-11-29T04:03:12.204Z,100109.91
2017-11-29T04:05:41.289Z,100108.91
2017-11-29T04:08:09.601Z,100114.45
2017-11-29T04:10:37.958Z,100109.99
2017-11-29T04:13:06.259Z,100118.29
2017-11-29T04:15:34.606Z,100119.47
2017-11-29T04:18:02.943Z,100117.38
2017-11-29T04:20:32.072Z,100121.94
2017-11-29T04:23:00.387Z,100118.51
2017-11-29T04:25:29.077Z,100116.52
2017-11-29T04:27:57.465Z,100116.56
2017-11-29T04:30:26.547Z,100116.38
2017-11-29T04:32:54.895Z,100117.52
2017-11-29T04:35:23.195Z,100116.78
2017-11-29T04:37:51.502Z,100113.70
2017-11-29T04:40:19.870Z,100113.98
2017-11-29T04:42:48.228Z,100118.44
2017-11-29T04:45:16.575Z,100116.67
2017-11-29T04:47:44.970Z,100125.28
2017-11-29T04:50:13.363Z,100123.00
2017-11-29T04:52:41.670Z,100120.12
2017-11-29T04:55:10.016Z,100125.05
2017-11-29T04:57:38.345Z,100120.83
2017-11-29T05:00:07.462Z,100120.02
2017-11-29T05:02:35.792Z,100128.13
2017-11-29T05:05:04.142Z,100121.44
2017-11-29T05:07:32.472Z,100125.09
2017-11-29T05:10:01.762Z,100126.48
2017-11-29T05:12:30.131Z,100125.05
2017-11-29T05:14:58.469Z,100122.55
2017-11-29T05:17:26.877Z,100134.23
2017-11-29T05:19:55.209Z,100120.56
2017-11-29T05:22:23.525Z,100124.78
2017-11-29T05:24:51.866Z,100119.06
2017-11-29T05:27:20.213Z,100124.66
2017-11-29T05:29:49.343Z,100127.39
2017-11-29T05:32:17.769Z,100127.11
2017-11-29T05:34:46.144Z,100127.28
2017-11-29T05:37:14.486Z,100127.54
2017-11-29T05:39:42.838Z,100129.09
2017-11-29T05:42:11.944Z,100135.80
2017-11-29T05:44:41.055Z,100133.62
2017-11-29T05:47:09.425Z,100139.12
2017-11-29T05:49:38.502Z,100147.61
2017-11-29T05:52:07.617Z,100139.48
2017-11-29T05:54:36.063Z,100141.24
2017-11-29T05:57:04.401Z,100146.57
2017-11-29T05:59:32.731Z,100141.16
2017-11-29T06:02:01.857Z,100142.61
2017-11-29T06:04:30.211Z,100145.41
2017-11-29T06:06:59.305Z,100154.11
2017-11-29T06:09:28.429Z,100150.27
2017-11-29T06:11:56.745Z,100161.08
2017-11-29T06:14:25.093Z,100155.84
2017-11-29T06:16:53.632Z,100161.02
2017-11-29T06:19:21.952Z,100163.30
2017-11-29T06:21:50.257Z,100158.28
2017-11-29T06:24:18.588Z,100155.76
2017-11-29T06:26:48.307Z,100164.47
2017-11-29T06:29:16.658Z,100166.17
2017-11-29T06:31:45.056Z,100161.64
2017-11-29T06:34:15.055Z,100169.71
2017-11-29T06:36:43.375Z,100172.13
2017-11-29T06:39:12.050Z,100179.55
2017-11-29T06:41:40.404Z,100179.33
2017-11-29T06:44:09.529Z,100177.25
2017-11-29T06:46:37.873Z,100179.78
2017-11-29T06:49:06.195Z,100191.20
2017-11-29T06:51:34.521Z,100186.55
2017-11-29T06:54:03.652Z,100184.13
2017-11-29T06:56:31.956Z,100194.11
2017-11-29T06:59:01.057Z,100191.27
2017-11-29T07:01:29.779Z,100197.83
2017-11-29T07:03:58.129Z,100189.70
2017-11-29T07:06:26.469Z,100195.52
2017-11-29T07:08:54.858Z,100207.03
2017-11-29T07:11:23.198Z,100202.97
2017-11-29T07:13:51.564Z,100210.66
2017-11-29T07:16:19.913Z,100213.37
2017-11-29T07:18:48.262Z,100213.45
2017-11-29T07:21:17.365Z,100213.13
2017-11-29T07:23:45.808Z,100218.66
2017-11-29T07:26:14.138Z,100218.47
2017-11-29T07:28:42.460Z,100224.95
2017-11-29T07:31:10.833Z,100220.41
2017-11-29T07:33:39.370Z,100224.44
2017-11-29T07:36:07.689Z,100227.67
2017-11-29T07:38:36.041Z,100223.13
2017-11-29T07:41:04.400Z,100228.76
2017-11-29T07:43:32.763Z,100229.44
2017-11-29T07:46:01.457Z,100227.52
2017-11-29T07:48:29.834Z,100224.19
2017-11-29T07:50:58.183Z,100218.88
2017-11-29T07:53:26.545Z,100228.70
2017-11-29T07:55:55.646Z,100226.92
2017-11-29T07:58:24.010Z,100221.10
2017-11-29T08:00:52.409Z,100220.94
2017-11-29T08:03:20.884Z,100228.88
2017-11-29T08:05:50.090Z,100234.07
2017-11-29T08:08:18.809Z,100239.37
2017-11-29T08:10:47.144Z,100246.76
2017-11-29T08:13:15.481Z,100242.27
2017-11-29T08:15:44.401Z,100241.72
2017-11-29T08:18:13.092Z,100246.95
2017-11-29T08:20:41.412Z,100244.63
2017-11-29T08:23:09.764Z,100250.75
2017-11-29T08:25:39.001Z,100246.75
2017-11-29T08:28:07.341Z,100251.44
2017-11-29T08:30:36.517Z,100253.91
2017-11-29T08:33:04.882Z,100249.59
2017-11-29T08:35:33.228Z,100255.70
2017-11-29T08:38:02.396Z,100259.98
2017-11-29T08:40:30.775Z,100261.92
2017-11-29T08:42:59.153Z,100264.32
2017-11-29T08:45:28.399Z,100260.91
2017-11-29T08:47:57.481Z,100267.44
2017-11-29T08:50:27.443Z,100268.63
2017-11-29T08:52:56.200Z,100274.20
2017-11-29T08:55:24.518Z,100275.00
2017-11-29T08:57:52.834Z,100274.36
2017-11-29T09:00:21.930Z,100277.30
2017-11-29T09:02:51.034Z,100280.05
2017-11-29T09:05:20.151Z,100275.20
2017-11-29T09:07:48.529Z,100286.12
2017-11-29T09:10:16.905Z,100286.06
2017-11-29T09:12:45.238Z,100286.41
2017-11-29T09:15:14.223Z,100291.47
2017-11-29T09:17:42.549Z,100295.27
2017-11-29T09:20:10.876Z,100290.38
2017-11-29T09:22:39.241Z,100296.31
2017-11-29T09:25:08.052Z,100306.53
2017-11-29T09:27:36.362Z,100302.28
2017-11-29T09:30:05.530Z,100299.52
2017-11-29T09:32:33.863Z,100315.48
2017-11-29T09:35:02.205Z,100300.38
2017-11-29T09:37:30.744Z,100302.73
2017-11-29T09:39:59.719Z,100310.31
2017-11-29T09:42:28.067Z,100293.16
2017-11-29T09:44:56.452Z,100304.81
2017-11-29T09:47:25.544Z,100303.89
2017-11-29T09:49:54.650Z,100315.58
2017-11-29T09:52:23.768Z,100307.84
2017-11-29T09:54:52.103Z,100304.77
2017-11-29T09:57:20.456Z,100305.29
2017-11-29T09:59:49.167Z,100308.69
2017-11-29T10:02:17.548Z,100299.52
2017-11-29T10:04:46.067Z,100305.48
2017-11-29T10:07:14.463Z,100298.83
2017-11-29T10:09:42.816Z,100290.41
2017-11-29T10:12:12.167Z,100287.99
2017-11-29T10:14:40.817Z,100282.57
2017-11-29T10:17:09.224Z,100281.64
2017-11-29T10:19:37.616Z,100284.94
2017-11-29T10:22:06.287Z,100286.25
2017-11-29T10:24:34.661Z,100284.87
2017-11-29T10:27:03.045Z,100281.88
2017-11-29T10:29:31.378Z,100284.95
2017-11-29T10:32:00.525Z,100280.29
2017-11-29T10:34:28.861Z,100274.23
2017-11-29T10:36:57.244Z,100282.52
2017-11-29T10:39:25.577Z,100273.64
2017-11-29T10:41:53.941Z,100279.34
2017-11-29T10:44:22.350Z,100279.77
2017-11-29T10:46:50.730Z,100282.95
2017-11-29T10:49:19.074Z,100273.91
2017-11-29T10:51:47.623Z,100277.80
2017-11-29T10:54:16.091Z,100286.07
2017-11-29T10:56:45.207Z,100280.69
2017-11-29T10:59:13.566Z,100289.28
2017-11-29T11:01:42.677Z,100290.72
2017-11-29T11:04:11.027Z,100285.41
2017-11-29T11:06:39.738Z,100283.06
2017-11-29T11:09:08.102Z,100285.13
2017-11-29T11:11:37.205Z,100288.03
2017-11-29T11:14:06.308Z,100291.66
2017-11-29T11:16:35.404Z,100285.78
2017-11-29T11:19:04.505Z,100288.20
2017-11-29T11:21:33.628Z,100287.81
2017-11-29T11:24:01.977Z,100288.09
2017-11-29T11:26:30.381Z,100288.89
2017-11-29T11:28:59.003Z,100285.63
2017-11-29T11:31:27.328Z,100287.41
2017-11-29T11:33:55.719Z,100285.81
2017-11-29T11:36:24.107Z,100288.33
2017-11-29T11:38:53.480Z,100283.33
2017-11-29T11:41:21.853Z,100282.25
2017-11-29T11:43:51.046Z,100283.56
2017-11-29T11:46:20.189Z,100286.38
2017-11-29T11:48:48.503Z,100286.06
2017-11-29T11:51:17.330Z,100278.29
2017-11-29T11:53:45.680Z,100274.97
2017-11-29T11:56:14.017Z,100274.50
2017-11-29T11:58:42.374Z,100272.84
2017-11-29T12:01:10.857Z,100273.05
2017-11-29T12:03:39.234Z,100279.27
2017-11-29T12:06:07.924Z,100274.45
2017-11-29T12:08:36.305Z,100279.34
2017-11-29T12:11:04.640Z,100279.73
2017-11-29T12:13:34.058Z,100271.45
2017-11-29T12:16:02.406Z,100272.68
2017-11-29T12:18:30.726Z,100278.17
2017-11-29T12:20:59.080Z,100283.03
2017-11-29T12:23:27.412Z,100278.03
2017-11-29T12:25:55.735Z,100274.93
2017-11-29T12:28:24.097Z,100275.13
2017-11-29T12:30:52.429Z,100273.97
2017-11-29T12:33:20.766Z,100274.61
2017-11-29T12:35:50.030Z,100284.54
2017-11-29T12:38:18.387Z,100282.69
2017-11-29T12:40:46.779Z,100276.11
2017-11-29T12:43:15.167Z,100287.82
2017-11-29T12:45:43.515Z,100280.53
2017-11-29T12:48:29.421Z,100290.34
2017-11-29T12:51:18.323Z,100283.11
2017-11-29T12:53:46.900Z,100285.06
2017-11-29T12:56:15.237Z,100287.12
2017-11-29T12:58:43.620Z,100289.66
2017-11-29T13:01:11.984Z,100290.09
2017-11-29T13:03:40.376Z,100284.95
2017-11-29T13:06:08.709Z,100289.81
2017-11-29T13:08:37.104Z,100293.09
2017-11-29T13:11:06.238Z,100291.77
2017-11-29T13:13:35.674Z,100289.49
2017-11-29T13:16:04.472Z,100285.67
2017-11-29T13:18:33.018Z,100291.20
2017-11-29T13:21:01.434Z,100293.20
2017-11-29T13:23:29.939Z,100292.34
2017-11-29T13:25:58.286Z,100291.72
2017-11-29T13:28:26.597Z,100294.14
2017-11-29T13:30:55.258Z,100294.03
2017-11-29T13:33:23.632Z,100299.41
2017-11-29T13:35:51.952Z,100295.95
2017-11-29T13:38:21.055Z,100298.03
2017-11-29T13:40:49.496Z,100298.59
2017-11-29T13:43:17.912Z,100296.69
2017-11-29T13:45:46.254Z,100291.79
2017-11-29T13:48:14.578Z,100297.00
2017-11-29T13:50:42.908Z,100300.15
2017-11-29T13:53:11.285Z,100302.55
2017-11-29T13:55:39.661Z,100300.34
2017-11-29T13:58:08.021Z,100296.47
2017-11-29T14:00:36.543Z,100302.80
2017-11-29T14:03:05.633Z,100306.91
2017-11-29T14:05:33.984Z,100300.52
2017-11-29T14:08:02.366Z,100309.64
2017-11-29T14:10:30.693Z,100307.25
2017-11-29T14:12:59.785Z,100307.11
2017-11-29T14:15:28.884Z,100305.06
2017-11-29T14:17:57.262Z,100311.57
2017-11-29T14:20:25.627Z,100306.80
2017-11-29T14:22:54.904Z,100307.08
2017-11-29T14:25:23.201Z,100305.83
2017-11-29T14:27:51.608Z,100302.84
2017-11-29T14:30:20.028Z,100304.27
2017-11-29T14:32:49.126Z,100306.45
2017-11-29T14:35:17.612Z,100309.80
2017-11-29T14:37:45.997Z,100310.80
2017-11-29T14:40:14.382Z,100310.50
2017-11-29T18:33:38.646Z,100358.25
2017-11-29T18:36:07.100Z,100359.83
2017-11-29T18:38:36.211Z,100357.03
2017-11-29T18:41:04.569Z,100365.73
2017-11-29T18:43:33.650Z,100364.16
2017-11-29T18:46:02.103Z,100366.89
2017-11-29T18:48:31.467Z,100363.88
2017-11-29T18:50:59.929Z,100361.98
2017-11-29T18:53:29.072Z,100366.27
2017-11-29T18:55:57.602Z,100363.59
2017-11-29T18:58:26.707Z,100363.73
2017-11-29T19:00:55.027Z,100366.22
2017-11-29T19:03:23.403Z,100370.16
2017-11-29T19:05:51.756Z,100370.66
2017-11-29T19:08:20.133Z,100365.74
2017-11-29T19:10:48.498Z,100368.39
2017-11-29T19:13:16.814Z,100359.59
2017-11-29T19:15:45.150Z,100363.89
2017-11-29T19:18:14.414Z,100364.50
2017-11-29T19:20:42.804Z,100361.30
2017-11-29T19:23:11.167Z,100366.34
2017-11-29T19:25:39.537Z,100367.45
2017-11-29T19:28:07.878Z,100373.34
2017-11-29T19:30:37.119Z,100367.95
2017-11-29T19:33:05.545Z,100372.63
2017-11-29T19:35:34.671Z,100372.33
2017-11-29T19:38:03.086Z,100372.70
2017-11-29T19:40:31.557Z,100383.42
2017-11-29T19:42:59.953Z,100376.98
2017-11-29T19:45:28.372Z,100375.87
2017-11-29T19:47:57.488Z,100372.30
2017-11-29T19:50:25.847Z,100373.28
2017-11-29T19:52:54.223Z,100369.02
2017-11-29T19:55:23.343Z,100373.59
2017-11-29T19:57:51.705Z,100371.06
2017-11-29T20:00:20.093Z,100364.18
2017-11-29T20:02:49.306Z,100363.98
2017-11-29T20:05:17.695Z,100358.10
2017-11-29T20:07:46.037Z,100358.87
2017-11-29T20:10:14.407Z,100359.21
2017-11-29T20:12:43.503Z,100355.58
2017-11-29T20:15:13.460Z,100356.84
2017-11-29T20:17:41.819Z,100356.51
2017-11-29T20:20:10.228Z,100356.91
2017-11-29T20:22:38.602Z,100352.16
2017-11-29T20:25:07.328Z,100357.83
2017-11-29T20:27:35.648Z,100355.63
2017-11-29T20:30:04.745Z,100359.83
2017-11-29T20:32:33.228Z,100360.61
2017-11-29T20:35:01.591Z,100356.97
2017-11-29T20:37:30.679Z,100355.14
2017-11-29T20:39:59.063Z,100354.05
2017-11-29T20:42:27.402Z,100352.78
2017-11-29T20:44:55.737Z,100354.06
2017-11-29T20:47:24.264Z,100352.99
2017-11-29T20:49:52.610Z,100351.81
2017-11-29T20:52:38.763Z,100352.32
2017-11-29T20:55:07.151Z,100350.05
2017-11-29T20:57:36.254Z,100350.55
2017-11-29T21:00:05.445Z,100353.61
2017-11-29T21:02:33.763Z,100351.34
2017-11-29T21:05:02.120Z,100354.28
2017-11-29T21:07:30.543Z,100359.76
2017-11-29T21:09:58.894Z,100359.28
2017-11-29T21:12:27.237Z,100353.14
2017-11-29T21:14:55.634Z,100347.39
2017-11-29T21:17:24.738Z,100346.41
2017-11-29T21:19:53.157Z,100349.32
2017-11-29T21:22:21.525Z,100346.40
2017-11-29T21:24:49.946Z,100341.59
2017-11-29T21:27:18.434Z,100343.08
2017-11-29T21:29:47.039Z,100348.88
2017-11-29T21:32:15.386Z,100349.89
2017-11-29T21:34:43.727Z,100343.33
2017-11-29T21:37:12.112Z,100344.19
2017-11-29T21:39:40.483Z,100344.37
2017-11-29T21:42:08.835Z,100344.78
2017-11-29T21:44:37.173Z,100345.95
2017-11-29T21:47:05.485Z,100347.97
2017-11-29T21:49:33.869Z,100345.55
2017-11-29T21:52:02.524Z,100340.78
2017-11-29T21:54:30.887Z,100341.38
2017-11-29T21:56:59.253Z,100339.88
2017-11-29T21:59:27.602Z,100338.30
2017-11-29T22:01:55.942Z,100337.14
2017-11-29T22:04:24.254Z,100338.02
2017-11-29T22:06:52.592Z,100347.66
2017-11-29T22:09:20.912Z,100336.14
2017-11-29T22:11:49.232Z,100338.41
2017-11-29T22:14:17.913Z,100335.72
2017-11-29T22:16:46.219Z,100334.66
2017-11-29T22:19:14.533Z,100335.20
2017-11-29T22:21:42.903Z,100329.22
2017-11-29T22:24:11.242Z,100331.16
2017-11-29T22:26:39.572Z,100334.58
2017-11-29T22:29:07.948Z,100333.09
2017-11-29T22:31:36.294Z,100327.58
2017-11-29T22:34:04.619Z,100332.91
2017-11-29T22:36:33.377Z,100333.16
2017-11-29T22:39:01.701Z,100329.14
2017-11-29T22:41:30.035Z,100326.91
2017-11-29T22:43:59.167Z,100324.56
2017-11-29T22:46:27.502Z,100324.77
2017-11-29T22:48:56.587Z,100332.34
2017-11-29T22:51:25.066Z,100325.41
2017-11-29T22:53:53.395Z,100324.77
2017-11-29T22:56:21.758Z,100323.25
2017-11-29T22:58:50.192Z,100328.85
2017-11-29T23:01:18.549Z,100318.59
2017-11-29T23:03:46.907Z,100329.19
2017-11-29T23:06:15.273Z,100322.16
2017-11-29T23:08:43.628Z,100317.22
2017-11-29T23:11:11.933Z,100315.52
2017-11-29T23:13:40.265Z,100308.33
2017-11-29T23:16:08.905Z,100317.84
2017-11-29T23:18:37.246Z,100315.30
2017-11-29T23:21:05.701Z,100310.99
2017-11-29T23:23:34.017Z,100307.95
2017-11-29T23:26:02.377Z,100307.68
2017-11-29T23:28:30.730Z,100311.31
2017-11-29T23:30:59.075Z,100303.80
2017-11-29T23:33:27.389Z,100299.23
2017-11-29T23:35:55.792Z,100297.50
2017-11-29T23:38:24.108Z,100294.77
2017-11-29T23:40:53.210Z,100298.44
2017-11-29T23:43:21.784Z,100296.56
2017-11-29T23:45:50.121Z,100296.14
2017-11-29T23:48:18.477Z,100297.79
2017-11-29T23:50:46.827Z,100293.77
2017-11-29T23:53:15.164Z,100288.02
2017-11-29T23:55:43.476Z,100291.11
2017-11-29T23:58:11.856Z,100291.48
